createdAt,value
2019-02-14T00:00:22.715Z,4.40
2019-02-14T00:00:58.354Z,4.40
2019-02-14T00:01:34.325Z,4.40
2019-02-14T00:02:10.159Z,4.40
2019-02-14T00:02:45.964Z,4.40
2019-02-14T00:03:21.870Z,4.40
2019-02-14T00:03:57.801Z,4.40
2019-02-14T00:04:33.560Z,4.50
2019-02-14T00:05:16.256Z,4.40
2019-02-14T00:05:47.414Z,4.50
2019-02-14T00:06:23.165Z,4.50
2019-02-14T00:06:59.173Z,4.50
2019-02-14T00:07:35.037Z,4.50
2019-02-14T00:08:10.918Z,4.50
2019-02-14T00:08:46.869Z,4.50
2019-02-14T00:09:22.928Z,4.50
2019-02-14T00:09:58.736Z,4.50
2019-02-14T00:10:34.608Z,4.50
2019-02-14T00:11:10.437Z,4.50
2019-02-14T00:11:46.274Z,4.50
2019-02-14T00:12:22.134Z,4.50
2019-02-14T00:12:57.714Z,4.50
2019-02-14T00:13:33.394Z,4.50
2019-02-14T00:14:09.196Z,4.50
2019-02-14T00:14:44.854Z,4.50
2019-02-14T00:15:20.534Z,4.50
2019-02-14T00:15:56.645Z,4.50
2019-02-14T00:16:32.485Z,4.50
2019-02-14T00:17:08.185Z,4.50
2019-02-14T00:17:43.845Z,4.50
2019-02-14T00:18:19.517Z,4.50
2019-02-14T00:18:55.545Z,4.50
2019-02-14T00:19:31.045Z,4.50
2019-02-14T00:20:07.472Z,4.50
2019-02-14T00:20:43.320Z,4.50
2019-02-14T00:21:19.215Z,4.50
2019-02-14T00:21:55.003Z,4.50
2019-02-14T00:22:30.851Z,4.50
2019-02-14T00:23:06.488Z,4.50
2019-02-14T00:23:42.123Z,4.50
2019-02-14T00:24:17.903Z,4.50
2019-02-14T00:24:53.805Z,4.50
2019-02-14T00:25:29.471Z,4.50
2019-02-14T00:26:05.564Z,4.50
2019-02-14T00:26:41.218Z,4.50
2019-02-14T00:27:17.432Z,4.50
2019-02-14T00:27:53.192Z,4.50
2019-02-14T00:28:28.985Z,4.50
2019-02-14T00:29:04.743Z,4.50
2019-02-14T00:29:40.591Z,4.50
2019-02-14T00:30:16.259Z,4.50
2019-02-14T00:30:52.131Z,4.50
2019-02-14T00:31:27.901Z,4.50
2019-02-14T00:32:03.591Z,4.50
2019-02-14T00:32:39.440Z,4.50
2019-02-14T00:33:15.187Z,4.50
2019-02-14T00:33:50.861Z,4.50
2019-02-14T00:34:26.653Z,4.50
2019-02-14T00:35:12.865Z,4.60
2019-02-14T00:35:48.974Z,4.50
2019-02-14T00:36:25.226Z,4.60
2019-02-14T00:37:01.054Z,4.50
2019-02-14T00:37:37.065Z,4.50
2019-02-14T00:38:12.730Z,4.50
2019-02-14T00:38:48.598Z,4.50
2019-02-14T00:39:24.417Z,4.50
2019-02-14T00:40:00.400Z,4.50
2019-02-14T00:40:35.983Z,4.50
2019-02-14T00:41:11.603Z,4.50
2019-02-14T00:41:47.355Z,4.50
2019-02-14T00:42:23.016Z,4.60
2019-02-14T00:42:58.783Z,4.50
2019-02-14T00:43:34.570Z,4.60
2019-02-14T00:44:10.516Z,4.50
2019-02-14T00:44:46.572Z,4.50
2019-02-14T00:45:22.505Z,4.50
2019-02-14T00:45:58.199Z,4.50
2019-02-14T00:46:34.049Z,4.50
2019-02-14T00:47:09.817Z,4.50
2019-02-14T00:47:45.751Z,4.50
2019-02-14T00:48:21.528Z,4.50
2019-02-14T00:48:57.660Z,4.50
2019-02-14T00:49:33.348Z,4.50
2019-02-14T00:50:09.348Z,4.50
2019-02-14T00:50:45.044Z,4.50
2019-02-14T00:51:20.914Z,4.50
2019-02-14T00:51:56.620Z,4.50
2019-02-14T00:52:32.359Z,4.50
2019-02-14T00:53:08.048Z,4.50
2019-02-14T00:53:43.739Z,4.50
2019-02-14T00:54:19.499Z,4.50
2019-02-14T00:54:55.582Z,4.50
2019-02-14T00:55:31.306Z,4.50
2019-02-14T00:56:06.994Z,4.50
2019-02-14T00:56:42.738Z,4.50
2019-02-14T00:57:18.570Z,4.50
2019-02-14T00:57:54.411Z,4.50
2019-02-14T00:58:30.130Z,4.50
2019-02-14T00:59:05.914Z,4.50
2019-02-14T00:59:41.610Z,4.60
2019-02-14T01:00:17.433Z,4.60
2019-02-14T01:00:53.141Z,4.60
2019-02-14T01:01:28.869Z,4.50
2019-02-14T01:02:04.470Z,4.50
2019-02-14T01:02:40.148Z,4.50
2019-02-14T01:03:15.945Z,4.50
2019-02-14T01:03:51.795Z,4.60
2019-02-14T01:04:27.495Z,4.60
2019-02-14T01:05:03.428Z,4.60
2019-02-14T01:05:39.320Z,4.60
2019-02-14T01:06:15.060Z,4.60
2019-02-14T01:06:50.780Z,4.60
2019-02-14T01:07:26.521Z,4.60
2019-02-14T01:08:02.469Z,4.60
2019-02-14T01:08:38.332Z,4.60
2019-02-14T01:09:14.008Z,4.50
2019-02-14T01:09:49.667Z,4.50
2019-02-14T01:10:25.571Z,4.60
2019-02-14T01:11:03.087Z,4.60
2019-02-14T01:11:38.856Z,4.60
2019-02-14T01:12:14.687Z,4.60
2019-02-14T01:12:50.547Z,4.60
2019-02-14T01:13:26.383Z,4.60
2019-02-14T01:14:02.124Z,4.60
2019-02-14T01:14:37.995Z,4.60
2019-02-14T01:15:14.088Z,4.60
2019-02-14T01:15:49.907Z,4.60
2019-02-14T01:16:25.615Z,4.60
2019-02-14T01:17:01.307Z,4.60
2019-02-14T01:17:37.128Z,4.60
2019-02-14T01:18:12.808Z,4.60
2019-02-14T01:18:48.515Z,4.60
2019-02-14T01:19:24.471Z,4.60
2019-02-14T01:20:00.167Z,4.60
2019-02-14T01:20:35.933Z,4.60
2019-02-14T01:21:11.840Z,4.60
2019-02-14T01:21:47.620Z,4.60
2019-02-14T01:22:23.364Z,4.60
2019-02-14T01:22:59.144Z,4.60
2019-02-14T01:23:34.884Z,4.60
2019-02-14T01:24:10.510Z,4.60
2019-02-14T01:24:46.421Z,4.60
2019-02-14T01:25:22.474Z,4.60
2019-02-14T01:25:58.401Z,4.60
2019-02-14T01:26:34.101Z,4.60
2019-02-14T01:27:10.059Z,4.60
2019-02-14T01:27:46.201Z,4.60
2019-02-14T01:28:22.159Z,4.60
2019-02-14T01:28:57.974Z,4.60
2019-02-14T01:29:34.932Z,4.60
2019-02-14T01:30:11.487Z,4.60
2019-02-14T01:30:47.387Z,4.60
2019-02-14T01:31:23.246Z,4.60
2019-02-14T01:31:58.910Z,4.60
2019-02-14T01:32:34.807Z,4.60
2019-02-14T01:33:10.566Z,4.60
2019-02-14T01:33:46.286Z,4.60
2019-02-14T01:34:22.221Z,4.60
2019-02-14T01:34:58.114Z,4.60
2019-02-14T01:35:41.694Z,4.60
2019-02-14T01:36:11.452Z,4.60
2019-02-14T01:36:47.269Z,4.60
2019-02-14T01:37:22.967Z,4.60
2019-02-14T01:37:58.709Z,4.60
2019-02-14T01:38:35.099Z,4.60
2019-02-14T01:39:10.819Z,4.60
2019-02-14T01:39:46.506Z,4.60
2019-02-14T01:40:22.340Z,4.60
2019-02-14T01:40:58.099Z,4.60
2019-02-14T01:41:34.041Z,4.60
2019-02-14T01:42:09.686Z,4.60
2019-02-14T01:42:45.371Z,4.60
2019-02-14T01:43:21.030Z,4.60
2019-02-14T01:43:56.974Z,4.60
2019-02-14T01:44:32.847Z,4.60
2019-02-14T01:45:09.634Z,4.60
2019-02-14T01:45:45.506Z,4.60
2019-02-14T01:46:21.224Z,4.60
2019-02-14T01:46:57.063Z,4.60
2019-02-14T01:47:32.779Z,4.60
2019-02-14T01:48:08.547Z,4.60
2019-02-14T01:48:44.399Z,4.60
2019-02-14T01:49:20.140Z,4.60
2019-02-14T01:49:55.959Z,4.60
2019-02-14T01:50:31.825Z,4.60
2019-02-14T01:51:07.483Z,4.60
2019-02-14T01:51:43.183Z,4.60
2019-02-14T01:52:18.927Z,4.60
2019-02-14T01:52:54.903Z,4.60
2019-02-14T01:53:30.568Z,4.60
2019-02-14T01:54:06.366Z,4.60
2019-02-14T01:54:42.266Z,4.60
2019-02-14T01:55:18.021Z,4.60
2019-02-14T01:55:53.770Z,4.60
2019-02-14T01:56:29.682Z,4.60
2019-02-14T01:57:05.352Z,4.60
2019-02-14T01:57:41.210Z,4.60
2019-02-14T01:58:17.664Z,4.60
2019-02-14T01:58:53.962Z,4.60
2019-02-14T01:59:29.802Z,4.60
2019-02-14T02:00:07.126Z,4.60
2019-02-14T02:00:42.786Z,4.60
2019-02-14T02:01:18.426Z,4.60
2019-02-14T02:01:54.047Z,4.60
2019-02-14T02:02:29.686Z,4.60
2019-02-14T02:03:05.414Z,4.60
2019-02-14T02:03:41.217Z,4.60
2019-02-14T02:04:16.982Z,4.60
2019-02-14T02:04:52.723Z,4.50
2019-02-14T02:05:28.382Z,4.50
2019-02-14T02:06:04.162Z,4.50
2019-02-14T02:06:39.885Z,4.50
2019-02-14T02:07:15.602Z,4.50
2019-02-14T02:07:51.305Z,4.50
2019-02-14T02:08:27.045Z,4.50
2019-02-14T02:09:04.242Z,4.50
2019-02-14T02:09:39.942Z,4.50
2019-02-14T02:10:15.745Z,4.50
2019-02-14T02:10:51.523Z,4.50
2019-02-14T02:11:27.169Z,4.50
2019-02-14T02:12:02.859Z,4.50
2019-02-14T02:12:38.674Z,4.50
2019-02-14T02:13:14.661Z,4.50
2019-02-14T02:13:50.561Z,4.50
2019-02-14T02:14:26.141Z,4.50
2019-02-14T02:15:01.929Z,4.50
2019-02-14T02:15:37.637Z,4.40
2019-02-14T02:16:13.442Z,4.40
2019-02-14T02:16:49.290Z,4.40
2019-02-14T02:17:25.072Z,4.50
2019-02-14T02:18:00.823Z,4.50
2019-02-14T02:18:37.271Z,4.50
2019-02-14T02:19:13.267Z,4.50
2019-02-14T02:19:49.128Z,4.50
2019-02-14T02:20:33.072Z,4.50
2019-02-14T02:21:02.156Z,4.50
2019-02-14T02:21:38.592Z,4.50
2019-02-14T02:22:14.398Z,4.50
2019-02-14T02:22:50.161Z,4.50
2019-02-14T02:23:25.842Z,4.50
2019-02-14T02:24:01.867Z,4.50
2019-02-14T02:24:37.534Z,4.40
2019-02-14T02:25:13.912Z,4.40
2019-02-14T02:25:49.820Z,4.40
2019-02-14T02:26:25.500Z,4.40
2019-02-14T02:27:01.380Z,4.40
2019-02-14T02:27:37.280Z,4.40
2019-02-14T02:28:13.081Z,4.30
2019-02-14T02:28:48.828Z,4.30
2019-02-14T02:29:24.720Z,4.30
2019-02-14T02:30:00.656Z,4.30
2019-02-14T02:30:36.508Z,4.30
2019-02-14T02:31:12.220Z,4.30
2019-02-14T02:31:47.941Z,4.30
2019-02-14T02:32:23.683Z,4.30
2019-02-14T02:32:59.580Z,4.30
2019-02-14T02:33:35.181Z,4.30
2019-02-14T02:34:10.951Z,4.30
2019-02-14T02:34:46.599Z,4.30
2019-02-14T02:35:22.415Z,4.30
2019-02-14T02:36:00.459Z,4.20
2019-02-14T02:36:35.629Z,4.20
2019-02-14T02:37:11.360Z,4.20
2019-02-14T02:37:47.240Z,4.20
2019-02-14T02:38:22.888Z,4.20
2019-02-14T02:38:58.701Z,4.20
2019-02-14T02:39:34.681Z,4.20
2019-02-14T02:40:10.710Z,4.20
2019-02-14T02:40:46.703Z,4.20
2019-02-14T02:41:22.322Z,4.10
2019-02-14T02:41:58.184Z,4.10
2019-02-14T02:42:33.956Z,4.10
2019-02-14T02:43:09.887Z,4.10
2019-02-14T02:43:45.527Z,4.10
2019-02-14T02:44:21.286Z,4.10
2019-02-14T02:44:57.188Z,4.10
2019-02-14T02:45:33.053Z,4.10
2019-02-14T02:46:08.674Z,4.10
2019-02-14T02:46:44.911Z,4.10
2019-02-14T02:47:20.583Z,4.10
2019-02-14T02:47:56.269Z,4.10
2019-02-14T02:48:31.922Z,4.00
2019-02-14T02:49:07.661Z,4.00
2019-02-14T02:49:43.660Z,4.00
2019-02-14T02:50:19.382Z,4.00
2019-02-14T02:50:55.216Z,4.00
2019-02-14T02:51:31.240Z,4.00
2019-02-14T02:52:06.994Z,4.00
2019-02-14T02:52:42.852Z,3.90
2019-02-14T02:53:18.527Z,3.90
2019-02-14T02:53:54.339Z,3.90
2019-02-14T02:54:30.166Z,3.90
2019-02-14T02:55:06.035Z,3.90
2019-02-14T02:55:41.894Z,3.90
2019-02-14T02:56:17.579Z,3.90
2019-02-14T02:56:53.319Z,3.90
2019-02-14T02:57:29.389Z,3.90
2019-02-14T02:58:05.273Z,3.90
2019-02-14T02:58:41.095Z,3.90
2019-02-14T02:59:16.807Z,3.90
2019-02-14T02:59:52.695Z,4.00
2019-02-14T03:00:28.446Z,3.90
2019-02-14T03:01:04.106Z,3.90
2019-02-14T03:01:39.907Z,3.90
2019-02-14T03:02:15.826Z,3.80
2019-02-14T03:02:51.541Z,3.80
2019-02-14T03:03:27.374Z,3.70
2019-02-14T03:04:03.164Z,3.70
2019-02-14T03:04:39.060Z,3.70
2019-02-14T03:05:15.674Z,3.70
2019-02-14T03:05:51.483Z,3.70
2019-02-14T03:06:27.306Z,3.70
2019-02-14T03:07:03.359Z,3.70
2019-02-14T03:07:39.113Z,3.60
2019-02-14T03:08:14.853Z,3.60
2019-02-14T03:08:50.635Z,3.60
2019-02-14T03:09:26.449Z,3.50
2019-02-14T03:10:02.732Z,3.60
2019-02-14T03:10:38.424Z,3.60
2019-02-14T03:11:16.065Z,3.50
2019-02-14T03:11:52.996Z,3.60
2019-02-14T03:12:28.724Z,3.60
2019-02-14T03:13:04.501Z,3.50
2019-02-14T03:13:40.353Z,3.50
2019-02-14T03:14:16.257Z,3.60
2019-02-14T03:14:52.112Z,3.60
2019-02-14T03:15:27.975Z,3.60
2019-02-14T03:16:04.061Z,3.60
2019-02-14T03:16:40.007Z,3.60
2019-02-14T03:17:15.748Z,3.60
2019-02-14T03:17:51.340Z,3.60
2019-02-14T03:18:26.989Z,3.60
2019-02-14T03:19:02.836Z,3.60
2019-02-14T03:19:38.575Z,3.50
2019-02-14T03:20:14.655Z,3.60
2019-02-14T03:20:50.453Z,3.60
2019-02-14T03:21:26.199Z,3.60
2019-02-14T03:22:02.032Z,3.60
2019-02-14T03:22:37.889Z,3.60
2019-02-14T03:23:13.668Z,3.60
2019-02-14T03:23:49.470Z,3.60
2019-02-14T03:24:25.216Z,3.60
2019-02-14T03:25:01.312Z,3.60
2019-02-14T03:25:37.205Z,3.60
2019-02-14T03:26:13.073Z,3.60
2019-02-14T03:26:49.022Z,3.60
2019-02-14T03:27:24.680Z,3.50
2019-02-14T03:28:00.541Z,3.50
2019-02-14T03:28:36.488Z,3.50
2019-02-14T03:29:12.268Z,3.50
2019-02-14T03:29:47.867Z,3.50
2019-02-14T03:30:23.741Z,3.50
2019-02-14T03:30:59.442Z,3.50
2019-02-14T03:31:35.449Z,3.50
2019-02-14T03:32:11.196Z,3.50
2019-02-14T03:32:47.032Z,3.50
2019-02-14T03:33:23.083Z,3.50
2019-02-14T03:33:58.782Z,3.50
2019-02-14T03:34:34.370Z,3.40
2019-02-14T03:35:10.193Z,3.40
2019-02-14T03:35:46.026Z,3.50
2019-02-14T03:36:21.796Z,3.40
2019-02-14T03:36:57.579Z,3.40
2019-02-14T03:37:33.549Z,3.40
2019-02-14T03:38:09.389Z,3.40
2019-02-14T03:38:45.040Z,3.40
2019-02-14T03:39:20.881Z,3.40
2019-02-14T03:39:56.500Z,3.40
2019-02-14T03:40:32.840Z,3.40
2019-02-14T03:41:08.736Z,3.40
2019-02-14T03:41:44.561Z,3.40
2019-02-14T03:42:20.469Z,3.40
2019-02-14T03:42:56.320Z,3.50
2019-02-14T03:43:32.081Z,3.50
2019-02-14T03:44:08.008Z,3.50
2019-02-14T03:44:43.745Z,3.50
2019-02-14T03:45:19.458Z,3.50
2019-02-14T03:45:55.135Z,3.50
2019-02-14T03:46:31.027Z,3.60
2019-02-14T03:47:07.495Z,3.60
2019-02-14T03:47:43.146Z,3.60
2019-02-14T03:48:19.012Z,3.70
2019-02-14T03:48:54.936Z,3.70
2019-02-14T03:49:30.726Z,3.70
2019-02-14T03:50:06.678Z,3.70
2019-02-14T03:50:42.450Z,3.70
2019-02-14T03:51:18.096Z,3.70
2019-02-14T03:51:54.111Z,3.70
2019-02-14T03:52:29.868Z,3.70
2019-02-14T03:53:05.639Z,3.70
2019-02-14T03:53:41.832Z,3.80
2019-02-14T03:54:17.603Z,3.80
2019-02-14T03:54:53.307Z,3.80
2019-02-14T03:55:28.962Z,3.80
2019-02-14T03:56:04.705Z,3.80
2019-02-14T03:56:40.521Z,3.80
2019-02-14T03:57:16.320Z,3.80
2019-02-14T03:57:52.008Z,3.80
2019-02-14T03:58:27.820Z,3.80
2019-02-14T03:59:03.668Z,3.80
2019-02-14T03:59:39.499Z,3.80
2019-02-14T04:00:16.407Z,3.80
2019-02-14T04:00:52.160Z,3.80
2019-02-14T04:01:27.965Z,3.80
2019-02-14T04:02:03.936Z,3.80
2019-02-14T04:02:39.725Z,3.90
2019-02-14T04:03:15.484Z,3.90
2019-02-14T04:03:51.246Z,3.90
2019-02-14T04:04:27.044Z,3.90
2019-02-14T04:05:02.720Z,3.90
2019-02-14T04:05:38.504Z,4.00
2019-02-14T04:06:14.092Z,4.00
2019-02-14T04:06:49.997Z,4.00
2019-02-14T04:07:25.690Z,4.00
2019-02-14T04:08:01.411Z,4.00
2019-02-14T04:08:37.067Z,4.00
2019-02-14T04:09:12.693Z,4.00
2019-02-14T04:09:49.178Z,4.00
2019-02-14T04:10:31.045Z,4.00
2019-02-14T04:11:14.704Z,4.00
2019-02-14T04:11:52.571Z,4.00
2019-02-14T04:12:28.470Z,4.10
2019-02-14T04:13:04.342Z,4.10
2019-02-14T04:13:40.034Z,4.10
2019-02-14T04:14:15.911Z,4.10
2019-02-14T04:14:51.931Z,4.10
2019-02-14T04:15:27.571Z,4.10
2019-02-14T04:16:04.451Z,4.10
2019-02-14T04:16:40.471Z,4.10
2019-02-14T04:17:16.291Z,4.10
2019-02-14T04:17:52.228Z,4.10
2019-02-14T04:18:28.322Z,4.10
2019-02-14T04:19:04.171Z,4.10
2019-02-14T04:19:39.907Z,4.10
2019-02-14T04:20:15.621Z,4.10
2019-02-14T04:20:51.396Z,4.10
2019-02-14T04:21:27.823Z,4.10
2019-02-14T04:22:03.353Z,4.10
2019-02-14T04:22:39.123Z,4.10
2019-02-14T04:23:15.005Z,4.10
2019-02-14T04:23:51.231Z,4.10
2019-02-14T04:24:27.004Z,4.10
2019-02-14T04:25:02.729Z,4.10
2019-02-14T04:25:38.588Z,4.10
2019-02-14T04:26:14.210Z,4.10
2019-02-14T04:26:52.423Z,4.10
2019-02-14T04:27:28.077Z,4.10
2019-02-14T04:28:03.777Z,4.00
2019-02-14T04:28:39.604Z,4.00
2019-02-14T04:29:15.354Z,4.00
2019-02-14T04:29:51.220Z,4.00
2019-02-14T04:30:27.028Z,4.00
2019-02-14T04:31:02.840Z,4.00
2019-02-14T04:31:38.600Z,4.00
2019-02-14T04:32:14.251Z,4.00
2019-02-14T04:32:50.068Z,4.00
2019-02-14T04:33:25.828Z,4.00
2019-02-14T04:34:01.633Z,4.00
2019-02-14T04:34:37.302Z,4.00
2019-02-14T04:35:13.254Z,4.00
2019-02-14T04:35:49.036Z,4.00
2019-02-14T04:36:24.755Z,4.00
2019-02-14T04:37:00.531Z,4.00
2019-02-14T04:37:36.546Z,4.00
2019-02-14T04:38:12.194Z,3.90
2019-02-14T04:38:48.115Z,3.90
2019-02-14T04:39:24.003Z,4.00
2019-02-14T04:40:00.011Z,3.90
2019-02-14T04:40:36.051Z,3.90
2019-02-14T04:41:11.854Z,3.90
2019-02-14T04:41:47.834Z,3.90
2019-02-14T04:42:23.567Z,3.90
2019-02-14T04:42:59.382Z,3.90
2019-02-14T04:43:35.218Z,3.90
2019-02-14T04:44:10.996Z,3.90
2019-02-14T04:44:46.910Z,3.90
2019-02-14T04:45:22.650Z,3.90
2019-02-14T04:45:58.540Z,3.90
2019-02-14T04:46:34.310Z,3.90
2019-02-14T04:47:10.057Z,3.90
2019-02-14T04:47:45.768Z,3.80
2019-02-14T04:48:21.591Z,3.80
2019-02-14T04:48:57.457Z,3.80
2019-02-14T04:49:33.257Z,3.80
2019-02-14T04:50:09.553Z,3.80
2019-02-14T04:50:45.644Z,3.80
2019-02-14T04:51:21.818Z,3.80
2019-02-14T04:51:57.686Z,3.80
2019-02-14T04:52:33.361Z,3.80
2019-02-14T04:53:09.102Z,3.80
2019-02-14T04:53:44.720Z,3.90
2019-02-14T04:54:20.660Z,3.90
2019-02-14T04:54:56.571Z,3.90
2019-02-14T04:55:32.463Z,3.90
2019-02-14T04:56:08.312Z,3.90
2019-02-14T04:56:44.594Z,3.90
2019-02-14T04:57:20.243Z,3.90
2019-02-14T04:57:56.225Z,3.90
2019-02-14T04:58:32.162Z,3.90
2019-02-14T04:59:07.846Z,4.00
2019-02-14T04:59:44.023Z,4.00
2019-02-14T05:00:20.075Z,4.00
2019-02-14T05:00:56.124Z,4.00
2019-02-14T05:01:31.822Z,4.00
2019-02-14T05:02:07.702Z,4.00
2019-02-14T05:02:43.422Z,4.00
2019-02-14T05:03:19.223Z,4.00
2019-02-14T05:03:54.932Z,4.00
2019-02-14T05:04:30.761Z,4.00
2019-02-14T05:05:06.953Z,4.00
2019-02-14T05:05:42.859Z,4.00
2019-02-14T05:06:18.589Z,4.00
2019-02-14T05:06:54.224Z,4.00
2019-02-14T05:07:29.881Z,4.00
2019-02-14T05:08:05.460Z,4.00
2019-02-14T05:08:41.248Z,4.00
2019-02-14T05:09:17.042Z,4.00
2019-02-14T05:09:52.750Z,4.00
2019-02-14T05:10:28.604Z,4.00
2019-02-14T05:11:04.422Z,4.00
2019-02-14T05:11:40.213Z,4.00
2019-02-14T05:12:16.003Z,4.00
2019-02-14T05:12:51.642Z,4.00
2019-02-14T05:13:27.766Z,4.00
2019-02-14T05:14:03.620Z,4.00
2019-02-14T05:14:39.408Z,3.90
2019-02-14T05:15:15.588Z,4.00
2019-02-14T05:15:51.540Z,4.00
2019-02-14T05:16:27.321Z,4.00
2019-02-14T05:17:03.100Z,4.00
2019-02-14T05:17:38.720Z,4.00
2019-02-14T05:18:14.462Z,4.00
2019-02-14T05:18:50.299Z,4.00
2019-02-14T05:19:26.076Z,4.00
2019-02-14T05:20:01.882Z,4.00
2019-02-14T05:20:37.724Z,4.00
2019-02-14T05:21:13.807Z,4.00
2019-02-14T05:21:49.722Z,4.00
2019-02-14T05:22:25.841Z,4.00
2019-02-14T05:23:01.500Z,4.00
2019-02-14T05:23:37.361Z,4.00
2019-02-14T05:24:12.900Z,4.00
2019-02-14T05:24:48.878Z,4.00
2019-02-14T05:25:24.791Z,4.00
2019-02-14T05:26:00.950Z,4.00
2019-02-14T05:26:36.690Z,4.00
2019-02-14T05:27:19.113Z,4.00
2019-02-14T05:27:54.931Z,4.00
2019-02-14T05:28:30.631Z,4.00
2019-02-14T05:29:06.310Z,4.00
2019-02-14T05:29:42.293Z,4.00
2019-02-14T05:30:18.627Z,4.00
2019-02-14T05:30:54.292Z,4.00
2019-02-14T05:31:30.092Z,4.00
2019-02-14T05:32:06.020Z,4.00
2019-02-14T05:32:41.812Z,4.00
2019-02-14T05:33:17.334Z,4.00
2019-02-14T05:33:53.062Z,4.00
2019-02-14T05:34:28.885Z,4.00
2019-02-14T05:35:04.700Z,4.00
2019-02-14T05:35:40.554Z,4.00
2019-02-14T05:36:16.501Z,4.00
2019-02-14T05:36:54.641Z,4.00
2019-02-14T05:37:29.629Z,4.00
2019-02-14T05:38:05.484Z,4.00
2019-02-14T05:38:41.380Z,4.00
2019-02-14T05:39:17.060Z,4.00
2019-02-14T05:39:53.181Z,4.00
2019-02-14T05:40:28.871Z,4.00
2019-02-14T05:41:04.993Z,4.00
2019-02-14T05:41:40.723Z,4.00
2019-02-14T05:42:16.663Z,4.00
2019-02-14T05:42:52.443Z,4.00
2019-02-14T05:43:28.256Z,4.00
2019-02-14T05:44:03.998Z,4.00
2019-02-14T05:44:39.967Z,4.00
2019-02-14T05:45:16.086Z,4.00
2019-02-14T05:45:52.046Z,4.00
2019-02-14T05:46:27.975Z,4.00
2019-02-14T05:47:03.580Z,4.00
2019-02-14T05:47:39.369Z,4.00
2019-02-14T05:48:15.290Z,4.00
2019-02-14T05:48:51.273Z,4.00
2019-02-14T05:49:27.276Z,4.00
2019-02-14T05:50:03.175Z,4.00
2019-02-14T05:50:39.031Z,4.00
2019-02-14T05:51:14.853Z,4.00
2019-02-14T05:51:50.678Z,4.00
2019-02-14T05:52:26.773Z,4.00
2019-02-14T05:53:02.530Z,4.00
2019-02-14T05:53:38.431Z,4.00
2019-02-14T05:54:14.031Z,4.10
2019-02-14T05:54:50.170Z,4.10
2019-02-14T05:55:26.060Z,4.10
2019-02-14T05:56:01.963Z,4.10
2019-02-14T05:56:38.044Z,4.10
2019-02-14T05:57:14.138Z,4.10
2019-02-14T05:57:49.937Z,4.10
2019-02-14T05:58:25.837Z,4.10
2019-02-14T05:59:01.557Z,4.10
2019-02-14T05:59:37.689Z,4.10
2019-02-14T06:00:14.749Z,4.10
2019-02-14T06:00:50.730Z,4.10
2019-02-14T06:01:26.358Z,4.10
2019-02-14T06:02:02.169Z,4.20
2019-02-14T06:02:38.098Z,4.20
2019-02-14T06:03:13.849Z,4.20
2019-02-14T06:03:49.604Z,4.20
2019-02-14T06:04:25.416Z,4.20
2019-02-14T06:05:01.275Z,4.20
2019-02-14T06:05:37.022Z,4.20
2019-02-14T06:06:12.814Z,4.20
2019-02-14T06:06:48.547Z,4.20
2019-02-14T06:07:24.266Z,4.20
2019-02-14T06:08:00.077Z,4.20
2019-02-14T06:08:35.861Z,4.20
2019-02-14T06:09:12.348Z,4.20
2019-02-14T06:09:48.258Z,4.30
2019-02-14T06:10:24.000Z,4.20
2019-02-14T06:10:59.721Z,4.20
2019-02-14T06:11:35.622Z,4.30
2019-02-14T06:12:11.322Z,4.30
2019-02-14T06:12:48.312Z,4.30
2019-02-14T06:13:25.314Z,4.30
2019-02-14T06:14:01.114Z,4.30
2019-02-14T06:14:36.974Z,4.30
2019-02-14T06:15:12.995Z,4.30
2019-02-14T06:15:48.695Z,4.30
2019-02-14T06:16:24.514Z,4.30
2019-02-14T06:17:00.315Z,4.30
2019-02-14T06:17:36.057Z,4.30
2019-02-14T06:18:11.903Z,4.30
2019-02-14T06:18:48.238Z,4.30
2019-02-14T06:19:23.916Z,4.30
2019-02-14T06:19:59.874Z,4.30
2019-02-14T06:20:35.680Z,4.30
2019-02-14T06:21:11.621Z,4.30
2019-02-14T06:21:47.332Z,4.30
2019-02-14T06:22:23.171Z,4.40
2019-02-14T06:22:59.091Z,4.40
2019-02-14T06:23:35.023Z,4.40
2019-02-14T06:24:10.863Z,4.40
2019-02-14T06:24:46.663Z,4.40
2019-02-14T06:25:22.619Z,4.40
2019-02-14T06:25:58.505Z,4.40
2019-02-14T06:26:34.434Z,4.40
2019-02-14T06:27:10.193Z,4.40
2019-02-14T06:27:46.141Z,4.40
2019-02-14T06:28:22.031Z,4.40
2019-02-14T06:28:57.815Z,4.40
2019-02-14T06:29:33.763Z,4.50
2019-02-14T06:30:11.543Z,4.50
2019-02-14T06:30:47.311Z,4.50
2019-02-14T06:31:23.039Z,4.50
2019-02-14T06:31:59.174Z,4.50
2019-02-14T06:32:35.044Z,4.50
2019-02-14T06:33:10.801Z,4.50
2019-02-14T06:33:46.509Z,4.50
2019-02-14T06:34:22.319Z,4.50
2019-02-14T06:34:58.031Z,4.50
2019-02-14T06:35:33.800Z,4.50
2019-02-14T06:36:09.659Z,4.50
2019-02-14T06:36:45.532Z,4.50
2019-02-14T06:37:21.228Z,4.50
2019-02-14T06:37:57.314Z,4.60
2019-02-14T06:38:33.044Z,4.50
2019-02-14T06:39:08.852Z,4.60
2019-02-14T06:39:44.504Z,4.60
2019-02-14T06:40:20.384Z,4.60
2019-02-14T06:40:56.299Z,4.60
2019-02-14T06:41:32.297Z,4.60
2019-02-14T06:42:08.100Z,4.60
2019-02-14T06:42:43.941Z,4.60
2019-02-14T06:43:19.740Z,4.60
2019-02-14T06:43:55.360Z,4.60
2019-02-14T06:44:31.180Z,4.60
2019-02-14T06:45:07.581Z,4.60
2019-02-14T06:45:43.188Z,4.70
2019-02-14T06:46:19.061Z,4.70
2019-02-14T06:46:54.880Z,4.70
2019-02-14T06:47:30.659Z,4.70
2019-02-14T06:48:06.400Z,4.70
2019-02-14T06:48:42.208Z,4.70
2019-02-14T06:49:17.951Z,4.70
2019-02-14T06:49:54.149Z,4.70
2019-02-14T06:50:34.722Z,4.70
2019-02-14T06:51:07.310Z,4.70
2019-02-14T06:51:42.990Z,4.80
2019-02-14T06:52:18.769Z,4.80
2019-02-14T06:52:54.748Z,4.80
2019-02-14T06:53:31.188Z,4.80
2019-02-14T06:54:07.628Z,4.80
2019-02-14T06:54:43.340Z,4.80
2019-02-14T06:55:19.191Z,4.80
2019-02-14T06:55:55.179Z,4.80
2019-02-14T06:56:30.900Z,4.80
2019-02-14T06:57:06.659Z,4.80
2019-02-14T06:57:42.333Z,4.80
2019-02-14T06:58:18.019Z,4.90
2019-02-14T06:58:53.700Z,4.90
2019-02-14T06:59:29.481Z,4.90
2019-02-14T07:00:05.425Z,4.90
2019-02-14T07:00:41.258Z,4.90
2019-02-14T07:01:16.858Z,4.90
2019-02-14T07:01:52.821Z,4.90
2019-02-14T07:02:28.509Z,4.90
2019-02-14T07:03:04.201Z,4.90
2019-02-14T07:03:40.041Z,4.90
2019-02-14T07:04:15.979Z,5.00
2019-02-14T07:04:51.662Z,5.00
2019-02-14T07:05:27.702Z,5.00
2019-02-14T07:06:03.402Z,5.00
2019-02-14T07:06:39.205Z,5.00
2019-02-14T07:07:18.580Z,5.00
2019-02-14T07:07:52.330Z,5.00
2019-02-14T07:08:28.088Z,5.00
2019-02-14T07:09:04.981Z,5.00
2019-02-14T07:09:40.789Z,5.00
2019-02-14T07:10:16.708Z,5.10
2019-02-14T07:10:52.448Z,5.00
2019-02-14T07:11:28.309Z,5.10
2019-02-14T07:12:04.076Z,5.10
2019-02-14T07:12:40.088Z,5.10
2019-02-14T07:13:17.290Z,5.10
2019-02-14T07:13:53.580Z,5.10
2019-02-14T07:14:29.660Z,5.10
2019-02-14T07:15:06.220Z,5.10
2019-02-14T07:15:42.500Z,5.10
2019-02-14T07:16:18.940Z,5.20
2019-02-14T07:16:54.627Z,5.20
2019-02-14T07:17:30.568Z,5.20
2019-02-14T07:18:06.149Z,5.20
2019-02-14T07:18:41.772Z,5.20
2019-02-14T07:19:17.331Z,5.20
2019-02-14T07:19:52.984Z,5.20
2019-02-14T07:20:28.612Z,5.20
2019-02-14T07:21:04.412Z,5.30
2019-02-14T07:21:40.121Z,5.30
2019-02-14T07:22:15.722Z,5.30
2019-02-14T07:22:51.594Z,5.30
2019-02-14T07:23:27.251Z,5.30
2019-02-14T07:24:02.834Z,5.30
2019-02-14T07:24:38.261Z,5.30
2019-02-14T07:25:13.921Z,5.30
2019-02-14T07:25:49.334Z,5.30
2019-02-14T07:26:24.804Z,5.30
2019-02-14T07:27:00.549Z,5.30
2019-02-14T07:27:36.119Z,5.30
2019-02-14T07:28:11.671Z,5.40
2019-02-14T07:28:47.231Z,5.40
2019-02-14T07:29:22.815Z,5.40
2019-02-14T07:29:58.372Z,5.40
2019-02-14T07:30:33.791Z,5.40
2019-02-14T07:31:09.331Z,5.40
2019-02-14T07:31:44.789Z,5.40
2019-02-14T07:32:20.350Z,5.40
2019-02-14T07:32:55.826Z,5.40
2019-02-14T07:33:31.410Z,5.40
2019-02-14T07:34:07.011Z,5.50
2019-02-14T07:34:42.540Z,5.50
2019-02-14T07:35:18.261Z,5.50
2019-02-14T07:35:53.801Z,5.50
2019-02-14T07:36:29.330Z,5.50
2019-02-14T07:37:04.941Z,5.50
2019-02-14T07:37:40.411Z,5.60
2019-02-14T07:38:15.850Z,5.60
2019-02-14T07:38:51.470Z,5.50
2019-02-14T07:39:26.890Z,5.60
2019-02-14T07:40:02.328Z,5.60
2019-02-14T07:40:37.773Z,5.60
2019-02-14T07:41:13.293Z,5.60
2019-02-14T07:41:49.147Z,5.60
2019-02-14T07:42:25.368Z,5.60
2019-02-14T07:43:00.909Z,5.70
2019-02-14T07:43:36.342Z,5.70
2019-02-14T07:44:11.931Z,5.70
2019-02-14T07:44:47.671Z,5.70
2019-02-14T07:45:23.255Z,5.70
2019-02-14T07:45:58.766Z,5.70
2019-02-14T07:46:34.397Z,5.70
2019-02-14T07:47:09.989Z,5.70
2019-02-14T07:47:45.487Z,5.70
2019-02-14T07:48:21.027Z,5.70
2019-02-14T07:48:56.445Z,5.70
2019-02-14T07:49:32.060Z,5.70
2019-02-14T07:50:08.155Z,5.70
2019-02-14T07:50:44.047Z,5.80
2019-02-14T07:51:19.587Z,5.80
2019-02-14T07:51:55.031Z,5.80
2019-02-14T07:52:30.804Z,5.80
2019-02-14T07:53:06.410Z,5.80
2019-02-14T07:53:42.127Z,5.90
2019-02-14T07:54:17.577Z,5.90
2019-02-14T07:54:53.264Z,6.00
2019-02-14T07:55:28.871Z,6.00
2019-02-14T07:56:04.383Z,6.00
2019-02-14T07:56:39.923Z,6.00
2019-02-14T07:57:15.435Z,6.10
2019-02-14T07:57:51.459Z,6.10